sensor_id;sensor_type;location;lat;lon;timestamp;pressure;altitude;pressure_sealevel;temperature
73894;BMP280;62699;50.534;12.784;2022-12-16T00:01:42;95284.44;;;-5.42
73894;BMP280;62699;50.534;12.784;2022-12-16T00:06:42;95276.16;;;-5.40
73894;BMP280;62699;50.534;12.784;2022-12-16T00:11:43;95278.63;;;-5.33
73894;BMP280;62699;50.534;12.784;2022-12-16T00:16:43;95281.59;;;-5.31
73894;BMP280;62699;50.534;12.784;2022-12-16T00:21:43;95284.13;;;-5.27
73894;BMP280;62699;50.534;12.784;2022-12-16T00:26:43;95276.94;;;-5.23
73894;BMP280;62699;50.534;12.784;2022-12-16T00:31:44;95272.03;;;-5.21
73894;BMP280;62699;50.534;12.784;2022-12-16T00:36:47;95280.22;;;-5.19
73894;BMP280;62699;50.534;12.784;2022-12-16T00:41:47;95281.69;;;-5.18
73894;BMP280;62699;50.534;12.784;2022-12-16T00:46:47;95279.31;;;-5.13
73894;BMP280;62699;50.534;12.784;2022-12-16T00:51:48;95272.59;;;-5.14
73894;BMP280;62699;50.534;12.784;2022-12-16T00:56:48;95274.34;;;-5.07
73894;BMP280;62699;50.534;12.784;2022-12-16T01:01:48;95275.81;;;-5.06
73894;BMP280;62699;50.534;12.784;2022-12-16T01:06:49;95286.59;;;-5.01
73894;BMP280;62699;50.534;12.784;2022-12-16T01:11:49;95280.09;;;-4.96
73894;BMP280;62699;50.534;12.784;2022-12-16T01:16:49;95281.22;;;-4.97
73894;BMP280;62699;50.534;12.784;2022-12-16T01:21:50;95281.34;;;-5.01
73894;BMP280;62699;50.534;12.784;2022-12-16T01:26:50;95281.22;;;-4.97
73894;BMP280;62699;50.534;12.784;2022-12-16T01:31:50;95286.81;;;-4.95
73894;BMP280;62699;50.534;12.784;2022-12-16T01:37:05;95281.91;;;-4.93
73894;BMP280;62699;50.534;12.784;2022-12-16T01:42:12;95274.38;;;-4.91
73894;BMP280;62699;50.534;12.784;2022-12-16T01:47:29;95275.13;;;-4.90
73894;BMP280;62699;50.534;12.784;2022-12-16T01:52:36;95272.50;;;-4.90
73894;BMP280;62699;50.534;12.784;2022-12-16T01:57:58;95267.56;;;-4.88
73894;BMP280;62699;50.534;12.784;2022-12-16T02:03:01;95262.75;;;-4.90
73894;BMP280;62699;50.534;12.784;2022-12-16T02:13:24;95254.69;;;-4.83
73894;BMP280;62699;50.534;12.784;2022-12-16T02:18:40;95251.25;;;-4.80
73894;BMP280;62699;50.534;12.784;2022-12-16T02:39:58;95247.56;;;-4.66
73894;BMP280;62699;50.534;12.784;2022-12-16T02:45:21;95252.72;;;-4.63
73894;BMP280;62699;50.534;12.784;2022-12-16T02:50:27;95246.66;;;-4.59
73894;BMP280;62699;50.534;12.784;2022-12-16T03:01:09;95244.75;;;-4.59
73894;BMP280;62699;50.534;12.784;2022-12-16T03:06:14;95244.34;;;-4.57
73894;BMP280;62699;50.534;12.784;2022-12-16T03:11:17;95243.53;;;-4.54
73894;BMP280;62699;50.534;12.784;2022-12-16T03:16:20;95246.50;;;-4.52
73894;BMP280;62699;50.534;12.784;2022-12-16T03:21:24;95236.31;;;-4.50
73894;BMP280;62699;50.534;12.784;2022-12-16T03:26:30;95240.44;;;-4.49
73894;BMP280;62699;50.534;12.784;2022-12-16T03:31:38;95231.41;;;-4.48
73894;BMP280;62699;50.534;12.784;2022-12-16T03:36:40;95251.56;;;-4.45
73894;BMP280;62699;50.534;12.784;2022-12-16T03:41:43;95247.78;;;-4.44
73894;BMP280;62699;50.534;12.784;2022-12-16T03:46:43;95247.69;;;-4.41
73894;BMP280;62699;50.534;12.784;2022-12-16T03:51:44;95262.59;;;-4.38
73894;BMP280;62699;50.534;12.784;2022-12-16T03:56:44;95270.09;;;-4.36
73894;BMP280;62699;50.534;12.784;2022-12-16T04:01:44;95276.09;;;-4.36
73894;BMP280;62699;50.534;12.784;2022-12-16T04:06:45;95280.59;;;-4.36
73894;BMP280;62699;50.534;12.784;2022-12-16T04:12:06;95285.03;;;-4.33
73894;BMP280;62699;50.534;12.784;2022-12-16T04:17:25;95288.41;;;-4.33
73894;BMP280;62699;50.534;12.784;2022-12-16T04:22:44;95293.59;;;-4.29
73894;BMP280;62699;50.534;12.784;2022-12-16T04:28:05;95292.44;;;-4.28
73894;BMP280;62699;50.534;12.784;2022-12-16T04:33:08;95279.31;;;-4.28
73894;BMP280;62699;50.534;12.784;2022-12-16T04:38:28;95296.84;;;-4.25
73894;BMP280;62699;50.534;12.784;2022-12-16T04:43:47;95291.91;;;-4.23
73894;BMP280;62699;50.534;12.784;2022-12-16T04:49:06;95290.03;;;-4.22
73894;BMP280;62699;50.534;12.784;2022-12-16T04:54:25;95295.19;;;-4.19
73894;BMP280;62699;50.534;12.784;2022-12-16T04:59:44;95291.09;;;-4.20
73894;BMP280;62699;50.534;12.784;2022-12-16T05:05:03;95296.69;;;-4.18
73894;BMP280;62699;50.534;12.784;2022-12-16T05:10:22;95292.09;;;-4.14
73894;BMP280;62699;50.534;12.784;2022-12-16T05:15:40;95292.81;;;-4.13
73894;BMP280;62699;50.534;12.784;2022-12-16T05:21:01;95309.31;;;-4.13
73894;BMP280;62699;50.534;12.784;2022-12-16T05:26:20;95312.53;;;-4.21
73894;BMP280;62699;50.534;12.784;2022-12-16T05:31:38;95316.56;;;-4.33
73894;BMP280;62699;50.534;12.784;2022-12-16T05:36:57;95316.56;;;-4.33
73894;BMP280;62699;50.534;12.784;2022-12-16T05:42:16;95321.81;;;-4.33
73894;BMP280;62699;50.534;12.784;2022-12-16T05:47:35;95325.94;;;-4.32
73894;BMP280;62699;50.534;12.784;2022-12-16T05:52:54;95327.97;;;-4.40
73894;BMP280;62699;50.534;12.784;2022-12-16T05:58:14;95327.88;;;-4.36
73894;BMP280;62699;50.534;12.784;2022-12-16T06:03:33;95339.88;;;-4.35
73894;BMP280;62699;50.534;12.784;2022-12-16T06:08:52;95343.97;;;-4.34
73894;BMP280;62699;50.534;12.784;2022-12-16T06:14:10;95369.25;;;-4.40
73894;BMP280;62699;50.534;12.784;2022-12-16T06:19:29;95381.31;;;-4.43
73894;BMP280;62699;50.534;12.784;2022-12-16T06:24:48;95383.53;;;-4.41
73894;BMP280;62699;50.534;12.784;2022-12-16T06:30:07;95386.63;;;-4.46
73894;BMP280;62699;50.534;12.784;2022-12-16T06:35:27;95392.06;;;-4.53
73894;BMP280;62699;50.534;12.784;2022-12-16T06:40:46;95399.69;;;-4.59
73894;BMP280;62699;50.534;12.784;2022-12-16T06:46:04;95414.03;;;-4.64
73894;BMP280;62699;50.534;12.784;2022-12-16T06:51:23;95424.59;;;-4.67
73894;BMP280;62699;50.534;12.784;2022-12-16T06:56:42;95435.19;;;-4.71
73894;BMP280;62699;50.534;12.784;2022-12-16T07:02:01;95442.38;;;-4.75
73894;BMP280;62699;50.534;12.784;2022-12-16T07:07:20;95449.91;;;-4.77
73894;BMP280;62699;50.534;12.784;2022-12-16T07:12:39;95452.22;;;-4.79
73894;BMP280;62699;50.534;12.784;2022-12-16T07:17:58;95448.09;;;-4.80
73894;BMP280;62699;50.534;12.784;2022-12-16T07:23:16;95463.94;;;-4.83
73894;BMP280;62699;50.534;12.784;2022-12-16T07:28:36;95465.06;;;-4.84
73894;BMP280;62699;50.534;12.784;2022-12-16T07:33:54;95473.63;;;-4.80
73894;BMP280;62699;50.534;12.784;2022-12-16T07:39:13;95485.72;;;-4.86
73894;BMP280;62699;50.534;12.784;2022-12-16T07:44:32;95499.78;;;-4.97
73894;BMP280;62699;50.534;12.784;2022-12-16T07:49:51;95488.75;;;-4.88
73894;BMP280;62699;50.534;12.784;2022-12-16T07:55:10;95501.34;;;-4.79
73894;BMP280;62699;50.534;12.784;2022-12-16T08:00:29;95515.63;;;-4.80
73894;BMP280;62699;50.534;12.784;2022-12-16T08:05:48;95518.06;;;-4.70
73894;BMP280;62699;50.534;12.784;2022-12-16T08:11:07;95523.91;;;-4.62
73894;BMP280;62699;50.534;12.784;2022-12-16T08:16:25;95530.13;;;-4.56
73894;BMP280;62699;50.534;12.784;2022-12-16T08:21:44;95539.06;;;-4.50
73894;BMP280;62699;50.534;12.784;2022-12-16T08:27:03;95540.53;;;-4.29
73894;BMP280;62699;50.534;12.784;2022-12-16T08:32:22;95546.53;;;-4.28
73894;BMP280;62699;50.534;12.784;2022-12-16T08:37:42;95541.78;;;-4.37
73894;BMP280;62699;50.534;12.784;2022-12-16T08:43:01;95540.38;;;-4.22
73894;BMP280;62699;50.534;12.784;2022-12-16T08:48:20;95564.16;;;-4.29
73894;BMP280;62699;50.534;12.784;2022-12-16T08:53:39;95562.75;;;-3.98
73894;BMP280;62699;50.534;12.784;2022-12-16T08:58:58;95571.66;;;-3.91
73894;BMP280;62699;50.534;12.784;2022-12-16T09:04:17;95568.56;;;-3.54
73894;BMP280;62699;50.534;12.784;2022-12-16T09:09:37;95590.59;;;-3.64
73894;BMP280;62699;50.534;12.784;2022-12-16T09:14:56;95584.06;;;-3.76
73894;BMP280;62699;50.534;12.784;2022-12-16T09:20:14;95588.63;;;-3.11
73894;BMP280;62699;50.534;12.784;2022-12-16T09:25:33;95585.81;;;-3.53
73894;BMP280;62699;50.534;12.784;2022-12-16T09:30:52;95589.78;;;-3.61
73894;BMP280;62699;50.534;12.784;2022-12-16T09:36:11;95603.25;;;-3.27
73894;BMP280;62699;50.534;12.784;2022-12-16T09:47:13;95607.38;;;-3.09
73894;BMP280;62699;50.534;12.784;2022-12-16T09:52:40;95613.31;;;-3.38
73894;BMP280;62699;50.534;12.784;2022-12-16T09:57:59;95621.66;;;-2.78
73894;BMP280;62699;50.534;12.784;2022-12-16T10:03:25;95617.41;;;-3.20
73894;BMP280;62699;50.534;12.784;2022-12-16T10:15:25;95621.38;;;-2.67
73894;BMP280;62699;50.534;12.784;2022-12-16T10:20:45;95622.28;;;-2.74
73894;BMP280;62699;50.534;12.784;2022-12-16T10:26:17;95629.72;;;-3.01
73894;BMP280;62699;50.534;12.784;2022-12-16T10:31:38;95634.66;;;-3.36
73894;BMP280;62699;50.534;12.784;2022-12-16T10:36:58;95634.84;;;-3.27
73894;BMP280;62699;50.534;12.784;2022-12-16T10:42:47;95633.25;;;-3.56
73894;BMP280;62699;50.534;12.784;2022-12-16T10:48:09;95642.09;;;-3.47
73894;BMP280;62699;50.534;12.784;2022-12-16T10:53:28;95646.16;;;-3.62
73894;BMP280;62699;50.534;12.784;2022-12-16T10:58:53;95650.09;;;-3.70
73894;BMP280;62699;50.534;12.784;2022-12-16T11:09:45;95659.09;;;-3.87
73894;BMP280;62699;50.534;12.784;2022-12-16T11:15:28;95661.88;;;-3.78
73894;BMP280;62699;50.534;12.784;2022-12-16T11:21:16;95650.34;;;-3.84
73894;BMP280;62699;50.534;12.784;2022-12-16T11:26:54;95659.63;;;-3.60
73894;BMP280;62699;50.534;12.784;2022-12-16T11:32:22;95672.88;;;-3.83
73894;BMP280;62699;50.534;12.784;2022-12-16T11:37:42;95676.59;;;-3.81
73894;BMP280;62699;50.534;12.784;2022-12-16T11:43:04;95692.84;;;-4.06
73894;BMP280;62699;50.534;12.784;2022-12-16T11:48:39;95693.38;;;-3.95
73894;BMP280;62699;50.534;12.784;2022-12-16T11:59:45;95695.34;;;-3.79
73894;BMP280;62699;50.534;12.784;2022-12-16T12:05:05;95700.84;;;-4.33
73894;BMP280;62699;50.534;12.784;2022-12-16T12:10:42;95702.94;;;-4.24
73894;BMP280;62699;50.534;12.784;2022-12-16T12:16:09;95696.66;;;-4.30
73894;BMP280;62699;50.534;12.784;2022-12-16T12:21:31;95708.88;;;-4.43
73894;BMP280;62699;50.534;12.784;2022-12-16T12:27:03;95712.09;;;-4.32
73894;BMP280;62699;50.534;12.784;2022-12-16T12:44:46;95746.13;;;-4.72
73894;BMP280;62699;50.534;12.784;2022-12-16T12:50:09;95758.38;;;-4.65
73894;BMP280;62699;50.534;12.784;2022-12-16T12:55:44;95754.41;;;-4.77
73894;BMP280;62699;50.534;12.784;2022-12-16T13:01:08;95762.22;;;-4.70
73894;BMP280;62699;50.534;12.784;2022-12-16T13:06:28;95762.63;;;-4.75
73894;BMP280;62699;50.534;12.784;2022-12-16T13:17:24;95781.94;;;-4.85
73894;BMP280;62699;50.534;12.784;2022-12-16T13:22:44;95792.16;;;-4.94
73894;BMP280;62699;50.534;12.784;2022-12-16T13:28:04;95792.78;;;-5.13
73894;BMP280;62699;50.534;12.784;2022-12-16T13:33:28;95800.16;;;-5.32
73894;BMP280;62699;50.534;12.784;2022-12-16T13:38:49;95800.47;;;-5.26
73894;BMP280;62699;50.534;12.784;2022-12-16T13:44:12;95814.50;;;-5.09
73894;BMP280;62699;50.534;12.784;2022-12-16T13:49:51;95818.41;;;-5.21
73894;BMP280;62699;50.534;12.784;2022-12-16T13:55:15;95833.53;;;-5.36
73894;BMP280;62699;50.534;12.784;2022-12-16T14:00:38;95845.16;;;-5.37
73894;BMP280;62699;50.534;12.784;2022-12-16T14:05:58;95849.97;;;-5.32
73894;BMP280;62699;50.534;12.784;2022-12-16T14:11:26;95854.53;;;-5.36
73894;BMP280;62699;50.534;12.784;2022-12-16T14:16:58;95867.38;;;-5.48
73894;BMP280;62699;50.534;12.784;2022-12-16T14:22:44;95879.31;;;-5.40
73894;BMP280;62699;50.534;12.784;2022-12-16T14:28:22;95886.34;;;-5.34
73894;BMP280;62699;50.534;12.784;2022-12-16T14:33:51;95895.16;;;-5.51
73894;BMP280;62699;50.534;12.784;2022-12-16T14:39:20;95918.00;;;-5.51
73894;BMP280;62699;50.534;12.784;2022-12-16T14:44:39;95920.06;;;-5.73
73894;BMP280;62699;50.534;12.784;2022-12-16T14:50:03;95925.31;;;-5.80
73894;BMP280;62699;50.534;12.784;2022-12-16T14:55:33;95933.19;;;-5.80
73894;BMP280;62699;50.534;12.784;2022-12-16T15:00:53;95939.25;;;-5.90
73894;BMP280;62699;50.534;12.784;2022-12-16T15:06:28;95948.59;;;-5.86
73894;BMP280;62699;50.534;12.784;2022-12-16T15:11:53;95956.50;;;-5.93
73894;BMP280;62699;50.534;12.784;2022-12-16T15:17:19;95959.16;;;-5.96
73894;BMP280;62699;50.534;12.784;2022-12-16T15:22:48;95959.59;;;-6.02
73894;BMP280;62699;50.534;12.784;2022-12-16T15:28:38;95962.13;;;-5.94
73894;BMP280;62699;50.534;12.784;2022-12-16T15:39:36;95972.56;;;-5.87
73894;BMP280;62699;50.534;12.784;2022-12-16T15:44:58;95989.03;;;-5.83
73894;BMP280;62699;50.534;12.784;2022-12-16T15:50:20;95995.84;;;-6.00
73894;BMP280;62699;50.534;12.784;2022-12-16T15:55:40;96008.97;;;-6.04
73894;BMP280;62699;50.534;12.784;2022-12-16T16:00:59;96019.44;;;-6.04
73894;BMP280;62699;50.534;12.784;2022-12-16T16:06:21;96020.56;;;-6.05
73894;BMP280;62699;50.534;12.784;2022-12-16T16:11:41;96022.44;;;-6.05
73894;BMP280;62699;50.534;12.784;2022-12-16T16:16:59;96043.78;;;-6.07
73894;BMP280;62699;50.534;12.784;2022-12-16T16:22:18;96040.09;;;-6.13
73894;BMP280;62699;50.534;12.784;2022-12-16T16:27:37;96054.31;;;-6.14
73894;BMP280;62699;50.534;12.784;2022-12-16T16:32:56;96055.47;;;-6.25
73894;BMP280;62699;50.534;12.784;2022-12-16T16:38:15;96071.56;;;-6.27
73894;BMP280;62699;50.534;12.784;2022-12-16T16:43:35;96069.34;;;-6.32
73894;BMP280;62699;50.534;12.784;2022-12-16T16:49:11;96078.66;;;-6.31
73894;BMP280;62699;50.534;12.784;2022-12-16T16:54:31;96077.56;;;-6.23
73894;BMP280;62699;50.534;12.784;2022-12-16T16:59:50;96079.38;;;-6.20
73894;BMP280;62699;50.534;12.784;2022-12-16T17:05:09;96090.63;;;-6.16
73894;BMP280;62699;50.534;12.784;2022-12-16T17:10:28;96104.47;;;-6.12
73894;BMP280;62699;50.534;12.784;2022-12-16T17:15:58;96104.06;;;-6.17
73894;BMP280;62699;50.534;12.784;2022-12-16T17:21:17;96115.72;;;-6.22
73894;BMP280;62699;50.534;12.784;2022-12-16T17:26:40;96124.69;;;-6.23
73894;BMP280;62699;50.534;12.784;2022-12-16T17:32:00;96120.97;;;-6.29
73894;BMP280;62699;50.534;12.784;2022-12-16T17:37:19;96130.69;;;-6.26
73894;BMP280;62699;50.534;12.784;2022-12-16T17:42:45;96131.81;;;-6.34
73894;BMP280;62699;50.534;12.784;2022-12-16T17:48:04;96144.88;;;-6.30
73894;BMP280;62699;50.534;12.784;2022-12-16T17:53:23;96139.66;;;-6.30
73894;BMP280;62699;50.534;12.784;2022-12-16T17:58:54;96155.75;;;-6.21
73894;BMP280;62699;50.534;12.784;2022-12-16T18:04:26;96151.97;;;-6.17
73894;BMP280;62699;50.534;12.784;2022-12-16T18:09:45;96153.88;;;-6.14
73894;BMP280;62699;50.534;12.784;2022-12-16T18:15:05;96155.38;;;-6.13
73894;BMP280;62699;50.534;12.784;2022-12-16T18:20:24;96165.41;;;-6.01
73894;BMP280;62699;50.534;12.784;2022-12-16T18:25:42;96171.03;;;-5.91
73894;BMP280;62699;50.534;12.784;2022-12-16T18:31:05;96177.00;;;-5.84
73894;BMP280;62699;50.534;12.784;2022-12-16T18:36:25;96183.69;;;-5.79
73894;BMP280;62699;50.534;12.784;2022-12-16T18:41:45;96183.72;;;-5.90
73894;BMP280;62699;50.534;12.784;2022-12-16T18:47:04;96176.28;;;-5.98
73894;BMP280;62699;50.534;12.784;2022-12-16T18:52:23;96187.88;;;-6.00
73894;BMP280;62699;50.534;12.784;2022-12-16T18:57:42;96193.13;;;-6.00
73894;BMP280;62699;50.534;12.784;2022-12-16T19:03:01;96200.22;;;-5.96
73894;BMP280;62699;50.534;12.784;2022-12-16T19:08:20;96193.13;;;-5.96
73894;BMP280;62699;50.534;12.784;2022-12-16T19:13:38;96202.13;;;-6.04
73894;BMP280;62699;50.534;12.784;2022-12-16T19:18:57;96221.19;;;-5.93
73894;BMP280;62699;50.534;12.784;2022-12-16T19:24:16;96212.16;;;-5.88
73894;BMP280;62699;50.534;12.784;2022-12-16T19:29:35;96210.66;;;-5.89
73894;BMP280;62699;50.534;12.784;2022-12-16T19:35:04;96215.56;;;-5.91
73894;BMP280;62699;50.534;12.784;2022-12-16T19:40:23;96222.72;;;-6.03
73894;BMP280;62699;50.534;12.784;2022-12-16T19:45:42;96232.44;;;-6.00
73894;BMP280;62699;50.534;12.784;2022-12-16T19:51:01;96242.16;;;-5.96
73894;BMP280;62699;50.534;12.784;2022-12-16T19:56:20;96249.28;;;-5.93
73894;BMP280;62699;50.534;12.784;2022-12-16T20:01:39;96258.97;;;-5.90
73894;BMP280;62699;50.534;12.784;2022-12-16T20:06:58;96268.38;;;-5.93
73894;BMP280;62699;50.534;12.784;2022-12-16T20:12:16;96275.09;;;-5.95
73894;BMP280;62699;50.534;12.784;2022-12-16T20:17:35;96283.34;;;-5.93
73894;BMP280;62699;50.534;12.784;2022-12-16T20:22:58;96297.94;;;-5.92
73894;BMP280;62699;50.534;12.784;2022-12-16T20:28:17;96306.91;;;-5.90
73894;BMP280;62699;50.534;12.784;2022-12-16T20:33:36;96303.19;;;-5.85
73894;BMP280;62699;50.534;12.784;2022-12-16T20:38:55;96314.75;;;-5.79
73894;BMP280;62699;50.534;12.784;2022-12-16T20:44:14;96304.66;;;-5.77
73894;BMP280;62699;50.534;12.784;2022-12-16T20:49:33;96323.00;;;-5.77
73894;BMP280;62699;50.534;12.784;2022-12-16T20:54:52;96327.53;;;-5.81
73894;BMP280;62699;50.534;12.784;2022-12-16T21:00:11;96323.78;;;-5.73
73894;BMP280;62699;50.534;12.784;2022-12-16T21:05:30;96323.75;;;-5.77
73894;BMP280;62699;50.534;12.784;2022-12-16T21:10:49;96334.22;;;-5.70
73894;BMP280;62699;50.534;12.784;2022-12-16T21:16:09;96330.84;;;-5.70
73894;BMP280;62699;50.534;12.784;2022-12-16T21:21:27;96334.97;;;-5.69
73894;BMP280;62699;50.534;12.784;2022-12-16T21:26:46;96341.72;;;-5.75
73894;BMP280;62699;50.534;12.784;2022-12-16T21:32:05;96350.00;;;-5.73
73894;BMP280;62699;50.534;12.784;2022-12-16T21:37:23;96356.69;;;-5.76
73894;BMP280;62699;50.534;12.784;2022-12-16T21:42:42;96358.19;;;-5.78
73894;BMP280;62699;50.534;12.784;2022-12-16T21:48:01;96367.59;;;-5.81
73894;BMP280;62699;50.534;12.784;2022-12-16T21:53:20;96379.53;;;-5.76
73894;BMP280;62699;50.534;12.784;2022-12-16T21:58:41;96382.91;;;-5.79
73894;BMP280;62699;50.534;12.784;2022-12-16T22:04:00;96396.41;;;-5.84
73894;BMP280;62699;50.534;12.784;2022-12-16T22:09:19;96397.53;;;-5.78
73894;BMP280;62699;50.534;12.784;2022-12-16T22:14:37;96404.25;;;-5.74
73894;BMP280;62699;50.534;12.784;2022-12-16T22:19:56;96417.38;;;-5.67
73894;BMP280;62699;50.534;12.784;2022-12-16T22:25:15;96423.75;;;-5.64
73894;BMP280;62699;50.534;12.784;2022-12-16T22:30:34;96427.09;;;-5.60
73894;BMP280;62699;50.534;12.784;2022-12-16T22:36:02;96431.63;;;-5.60
73894;BMP280;62699;50.534;12.784;2022-12-16T22:41:21;96443.22;;;-5.61
73894;BMP280;62699;50.534;12.784;2022-12-16T22:46:40;96447.34;;;-5.68
73894;BMP280;62699;50.534;12.784;2022-12-16T22:51:59;96447.34;;;-5.64
73894;BMP280;62699;50.534;12.784;2022-12-16T22:57:18;96446.59;;;-5.68
73894;BMP280;62699;50.534;12.784;2022-12-16T23:02:37;96442.09;;;-5.75
73894;BMP280;62699;50.534;12.784;2022-12-16T23:07:59;96447.00;;;-5.73
73894;BMP280;62699;50.534;12.784;2022-12-16T23:13:18;96459.31;;;-5.77
73894;BMP280;62699;50.534;12.784;2022-12-16T23:18:37;96457.09;;;-5.86
73894;BMP280;62699;50.534;12.784;2022-12-16T23:23:56;96450.31;;;-5.80
73894;BMP280;62699;50.534;12.784;2022-12-16T23:29:15;96463.06;;;-5.85
73894;BMP280;62699;50.534;12.784;2022-12-16T23:34:34;96459.34;;;-5.81
73894;BMP280;62699;50.534;12.784;2022-12-16T23:40:12;96454.81;;;-5.77
73894;BMP280;62699;50.534;12.784;2022-12-16T23:45:31;96469.81;;;-5.70
73894;BMP280;62699;50.534;12.784;2022-12-16T23:50:50;96477.31;;;-5.65
73894;BMP280;62699;50.534;12.784;2022-12-16T23:56:23;96475.44;;;-5.64
